Terminal Aerodrome Forecast
Issued by NWS

Home | Current Version | Previous Version | Text Only | Print | Product List | Glossary On
Versions: 1 2 3 4 5 6 7 8 9 10 11 12 13 14 15 16 17 18 19 20 21
687
FTUS41 KBGM 170725 AAA
TAFELM
TAF AMD
KELM 170725Z 1707/1806 VRB03KT P6SM SCT060
      TEMPO 1708/1710 2SM BR FEW060
     FM171000 00000KT 1SM BR SCT002
      TEMPO 1710/1713 1/2SM FG OVC002
     FM171300 16005KT P6SM SCT100
     FM180400 16006KT P6SM -SHRA OVC045=

USA.gov is the U.S. government's official web portal to all federal, state and local government web resources and services.